CheckWX is a tool to help pilots better visualize weather data.  It is not intended as a substitute for an official pre-flight weather briefing.

00:42:15 UTC

VTCC TAF
Chiang Mai International Airport
Chiang Mai, Thailand
TAF VTCC 162300Z 1700/1806 24005KT 9999 FEW035

Nov-17@
00:00 UTC

Nov-17 @ 00:00 UTC

Nov-18@
06:00 UTC

Nov-18 @ 06:00 UTC

TAF VTCC 162300Z 1700/1806 24005KT 9999 FEW035
Wind
  • 240° at 5 KTS
Cloud Levels
  • Few at 3,500' AGL